KARB/ARB METAR and TAF weather

Enter ICAO airport designator
Station Type Date Time Source
KARB METAR 2019/02/20 22:53 UTC NOAA

KARB 202253Z 09007KT 1SM BR OVC003 00/00 A2974 RMK AO2 UPB00E17FZRAB07FZRAEMM SLP082 P0002 I1009 T00000000


Station Type Date Time Source
KARB Decoded METAR 2019/02/20 22:53 UTC NOAA

ANN ARBOR MUNICIPAL AIRPORT, MI, United States (KARB) 42-13N 083-45W 251M
Feb 20, 2019 - 05:53 PM EST / 2019.02.20 2253 UTC
Wind: from the E (090 degrees) at 8 MPH (7 KT):0
Visibility: 1 mile(s):0
Sky conditions: overcast
Weather: mist
Precipitation last hour: 0.02 inches
Temperature: 32.0 F (0.0 C)
Windchill: 24 F (-4 C):1
Dew Point: 32.0 F (0.0 C)
Relative Humidity: 100%
Pressure (altimeter): 29.74 in. Hg (1007 hPa)
ob: KARB 202253Z 09007KT 1SM BR OVC003 00/00 A2974 RMK AO2 UPB00E17FZRAB07FZRAEMM SLP082 P0002 I1009 T00000000
cycle: 23

Station Type Date Time Source
KARB TAF UTC NOAA

Error!


Example: see airport list